sensor_id;sensor_type;location;lat;lon;timestamp;P1;durP1;ratioP1;P2;durP2;ratioP2
51764;SDS011;37835;53.256;6.456;2023-02-15T00:01:44;47.70;;;29.13;;
51764;SDS011;37835;53.256;6.456;2023-02-15T00:04:14;48.80;;;29.30;;
51764;SDS011;37835;53.256;6.456;2023-02-15T00:06:41;52.07;;;29.57;;
51764;SDS011;37835;53.256;6.456;2023-02-15T00:09:08;46.50;;;29.93;;
51764;SDS011;37835;53.256;6.456;2023-02-15T00:11:34;39.73;;;27.87;;
51764;SDS011;37835;53.256;6.456;2023-02-15T00:14:09;46.80;;;30.40;;
51764;SDS011;37835;53.256;6.456;2023-02-15T00:16:37;44.03;;;29.97;;
51764;SDS011;37835;53.256;6.456;2023-02-15T00:19:03;41.83;;;25.33;;
51764;SDS011;37835;53.256;6.456;2023-02-15T00:21:30;42.67;;;26.00;;
51764;SDS011;37835;53.256;6.456;2023-02-15T00:23:58;40.10;;;25.40;;
51764;SDS011;37835;53.256;6.456;2023-02-15T00:26:25;41.10;;;26.27;;
51764;SDS011;37835;53.256;6.456;2023-02-15T00:28:51;43.17;;;27.07;;
51764;SDS011;37835;53.256;6.456;2023-02-15T00:31:17;46.10;;;28.60;;
51764;SDS011;37835;53.256;6.456;2023-02-15T00:33:43;47.00;;;28.37;;
51764;SDS011;37835;53.256;6.456;2023-02-15T00:36:09;45.20;;;26.80;;
51764;SDS011;37835;53.256;6.456;2023-02-15T00:38:35;49.80;;;29.33;;
51764;SDS011;37835;53.256;6.456;2023-02-15T00:41:02;46.77;;;26.80;;
51764;SDS011;37835;53.256;6.456;2023-02-15T00:43:30;42.70;;;25.77;;
51764;SDS011;37835;53.256;6.456;2023-02-15T00:45:56;61.23;;;28.73;;
51764;SDS011;37835;53.256;6.456;2023-02-15T00:48:22;46.20;;;26.80;;
51764;SDS011;37835;53.256;6.456;2023-02-15T00:50:49;46.33;;;28.20;;
51764;SDS011;37835;53.256;6.456;2023-02-15T00:53:19;148.10;;;40.33;;
51764;SDS011;37835;53.256;6.456;2023-02-15T00:55:46;98.03;;;36.50;;
51764;SDS011;37835;53.256;6.456;2023-02-15T00:58:13;68.50;;;38.43;;
51764;SDS011;37835;53.256;6.456;2023-02-15T01:00:39;65.00;;;36.67;;
51764;SDS011;37835;53.256;6.456;2023-02-15T01:03:05;108.27;;;40.50;;
51764;SDS011;37835;53.256;6.456;2023-02-15T01:05:31;107.03;;;37.83;;
51764;SDS011;37835;53.256;6.456;2023-02-15T01:07:57;61.30;;;33.53;;
51764;SDS011;37835;53.256;6.456;2023-02-15T01:10:24;58.87;;;32.00;;
51764;SDS011;37835;53.256;6.456;2023-02-15T01:12:51;64.07;;;35.00;;
51764;SDS011;37835;53.256;6.456;2023-02-15T01:15:17;61.30;;;32.97;;
51764;SDS011;37835;53.256;6.456;2023-02-15T01:17:43;60.10;;;33.50;;
51764;SDS011;37835;53.256;6.456;2023-02-15T01:20:14;65.67;;;35.70;;
51764;SDS011;37835;53.256;6.456;2023-02-15T01:22:40;109.13;;;37.37;;
51764;SDS011;37835;53.256;6.456;2023-02-15T01:25:05;107.93;;;41.07;;
51764;SDS011;37835;53.256;6.456;2023-02-15T01:27:31;257.90;;;41.37;;
51764;SDS011;37835;53.256;6.456;2023-02-15T01:29:57;245.63;;;39.57;;
51764;SDS011;37835;53.256;6.456;2023-02-15T01:32:22;103.03;;;33.63;;
51764;SDS011;37835;53.256;6.456;2023-02-15T01:34:48;88.03;;;35.20;;
51764;SDS011;37835;53.256;6.456;2023-02-15T01:37:14;91.90;;;34.63;;
51764;SDS011;37835;53.256;6.456;2023-02-15T01:39:39;100.80;;;33.73;;
51764;SDS011;37835;53.256;6.456;2023-02-15T01:42:05;51.80;;;32.33;;
51764;SDS011;37835;53.256;6.456;2023-02-15T01:47:44;63.53;;;34.93;;
51764;SDS011;37835;53.256;6.456;2023-02-15T01:50:16;67.97;;;34.90;;
51764;SDS011;37835;53.256;6.456;2023-02-15T01:52:51;58.53;;;34.50;;
51764;SDS011;37835;53.256;6.456;2023-02-15T01:55:32;104.22;;;36.53;;
51764;SDS011;37835;53.256;6.456;2023-02-15T01:58:01;65.45;;;34.50;;
51764;SDS011;37835;53.256;6.456;2023-02-15T02:00:27;60.40;;;35.47;;
51764;SDS011;37835;53.256;6.456;2023-02-15T02:02:53;60.77;;;35.60;;
51764;SDS011;37835;53.256;6.456;2023-02-15T02:05:22;68.40;;;39.93;;
51764;SDS011;37835;53.256;6.456;2023-02-15T02:07:48;142.90;;;45.03;;
51764;SDS011;37835;53.256;6.456;2023-02-15T02:10:17;144.43;;;43.90;;
51764;SDS011;37835;53.256;6.456;2023-02-15T02:12:45;89.70;;;42.07;;
51764;SDS011;37835;53.256;6.456;2023-02-15T02:15:12;118.90;;;39.57;;
51764;SDS011;37835;53.256;6.456;2023-02-15T02:17:56;128.40;;;39.23;;
51764;SDS011;37835;53.256;6.456;2023-02-15T02:20:52;119.67;;;39.43;;
51764;SDS011;37835;53.256;6.456;2023-02-15T02:42:25;204.13;;;51.60;;
51764;SDS011;37835;53.256;6.456;2023-02-15T02:45:19;112.17;;;49.40;;
51764;SDS011;37835;53.256;6.456;2023-02-15T02:48:09;76.97;;;46.60;;
51764;SDS011;37835;53.256;6.456;2023-02-15T02:50:39;82.50;;;48.50;;
51764;SDS011;37835;53.256;6.456;2023-02-15T02:53:05;83.63;;;53.83;;
51764;SDS011;37835;53.256;6.456;2023-02-15T02:55:32;83.10;;;53.70;;
51764;SDS011;37835;53.256;6.456;2023-02-15T03:00:48;78.90;;;53.80;;
51764;SDS011;37835;53.256;6.456;2023-02-15T03:03:18;78.77;;;52.00;;
51764;SDS011;37835;53.256;6.456;2023-02-15T03:05:50;69.70;;;48.77;;
51764;SDS011;37835;53.256;6.456;2023-02-15T03:08:20;83.20;;;52.77;;
51764;SDS011;37835;53.256;6.456;2023-02-15T03:10:48;65.03;;;45.97;;
51764;SDS011;37835;53.256;6.456;2023-02-15T03:13:18;65.73;;;44.97;;
51764;SDS011;37835;53.256;6.456;2023-02-15T03:15:44;57.87;;;42.20;;
51764;SDS011;37835;53.256;6.456;2023-02-15T03:18:31;63.57;;;42.03;;
51764;SDS011;37835;53.256;6.456;2023-02-15T03:21:03;55.60;;;40.17;;
51764;SDS011;37835;53.256;6.456;2023-02-15T03:23:31;54.10;;;38.60;;
51764;SDS011;37835;53.256;6.456;2023-02-15T03:26:03;55.33;;;38.73;;
51764;SDS011;37835;53.256;6.456;2023-02-15T03:31:07;53.03;;;38.60;;
51764;SDS011;37835;53.256;6.456;2023-02-15T03:33:37;51.57;;;37.80;;
51764;SDS011;37835;53.256;6.456;2023-02-15T03:36:11;54.57;;;37.37;;
51764;SDS011;37835;53.256;6.456;2023-02-15T03:38:53;51.40;;;36.60;;
51764;SDS011;37835;53.256;6.456;2023-02-15T03:41:27;50.90;;;37.93;;
51764;SDS011;37835;53.256;6.456;2023-02-15T03:44:00;49.88;;;36.53;;
51764;SDS011;37835;53.256;6.456;2023-02-15T03:46:50;50.63;;;36.30;;
51764;SDS011;37835;53.256;6.456;2023-02-15T03:49:31;53.27;;;37.40;;
51764;SDS011;37835;53.256;6.456;2023-02-15T03:52:04;54.60;;;37.83;;
51764;SDS011;37835;53.256;6.456;2023-02-15T03:54:32;53.87;;;37.57;;
51764;SDS011;37835;53.256;6.456;2023-02-15T03:57:21;54.60;;;39.33;;
51764;SDS011;37835;53.256;6.456;2023-02-15T04:00:21;55.40;;;38.47;;
51764;SDS011;37835;53.256;6.456;2023-02-15T04:03:12;56.43;;;39.00;;
51764;SDS011;37835;53.256;6.456;2023-02-15T04:05:58;53.67;;;37.17;;
51764;SDS011;37835;53.256;6.456;2023-02-15T04:08:26;57.93;;;40.07;;
51764;SDS011;37835;53.256;6.456;2023-02-15T04:11:12;63.87;;;41.07;;
51764;SDS011;37835;53.256;6.456;2023-02-15T04:13:38;59.80;;;40.60;;
51764;SDS011;37835;53.256;6.456;2023-02-15T04:16:04;64.23;;;41.40;;
51764;SDS011;37835;53.256;6.456;2023-02-15T04:21:17;66.07;;;43.20;;
51764;SDS011;37835;53.256;6.456;2023-02-15T04:24:01;65.23;;;44.63;;
51764;SDS011;37835;53.256;6.456;2023-02-15T04:26:46;65.77;;;44.30;;
51764;SDS011;37835;53.256;6.456;2023-02-15T04:29:13;63.13;;;43.70;;
51764;SDS011;37835;53.256;6.456;2023-02-15T04:31:39;63.83;;;44.03;;
51764;SDS011;37835;53.256;6.456;2023-02-15T04:34:05;64.20;;;43.97;;
51764;SDS011;37835;53.256;6.456;2023-02-15T04:36:30;70.67;;;46.63;;
51764;SDS011;37835;53.256;6.456;2023-02-15T04:38:56;75.43;;;46.53;;
51764;SDS011;37835;53.256;6.456;2023-02-15T04:41:22;67.67;;;45.87;;
51764;SDS011;37835;53.256;6.456;2023-02-15T04:43:47;61.03;;;42.80;;
51764;SDS011;37835;53.256;6.456;2023-02-15T04:46:13;68.60;;;45.63;;
51764;SDS011;37835;53.256;6.456;2023-02-15T04:48:38;66.13;;;43.67;;
51764;SDS011;37835;53.256;6.456;2023-02-15T04:51:07;65.63;;;43.10;;
51764;SDS011;37835;53.256;6.456;2023-02-15T04:53:34;69.07;;;46.10;;
51764;SDS011;37835;53.256;6.456;2023-02-15T04:56:00;71.63;;;46.30;;
51764;SDS011;37835;53.256;6.456;2023-02-15T04:58:26;78.23;;;49.43;;
51764;SDS011;37835;53.256;6.456;2023-02-15T05:00:54;84.30;;;52.40;;
51764;SDS011;37835;53.256;6.456;2023-02-15T05:03:21;83.20;;;51.60;;
51764;SDS011;37835;53.256;6.456;2023-02-15T05:05:46;83.23;;;52.70;;
51764;SDS011;37835;53.256;6.456;2023-02-15T05:08:12;86.03;;;54.07;;
51764;SDS011;37835;53.256;6.456;2023-02-15T05:10:37;84.40;;;53.90;;
51764;SDS011;37835;53.256;6.456;2023-02-15T05:13:03;88.93;;;53.40;;
51764;SDS011;37835;53.256;6.456;2023-02-15T05:15:28;83.80;;;52.60;;
51764;SDS011;37835;53.256;6.456;2023-02-15T05:17:54;89.67;;;53.60;;
51764;SDS011;37835;53.256;6.456;2023-02-15T05:20:19;84.53;;;52.33;;
51764;SDS011;37835;53.256;6.456;2023-02-15T05:22:45;90.57;;;55.73;;
51764;SDS011;37835;53.256;6.456;2023-02-15T05:25:10;111.13;;;65.43;;
51764;SDS011;37835;53.256;6.456;2023-02-15T05:27:55;115.20;;;66.77;;
51764;SDS011;37835;53.256;6.456;2023-02-15T05:30:39;111.40;;;67.33;;
51764;SDS011;37835;53.256;6.456;2023-02-15T05:33:05;122.00;;;67.47;;
51764;SDS011;37835;53.256;6.456;2023-02-15T05:35:32;107.03;;;62.00;;
51764;SDS011;37835;53.256;6.456;2023-02-15T05:37:58;97.63;;;56.13;;
51764;SDS011;37835;53.256;6.456;2023-02-15T05:40:23;92.90;;;53.93;;
51764;SDS011;37835;53.256;6.456;2023-02-15T05:42:49;89.50;;;51.97;;
51764;SDS011;37835;53.256;6.456;2023-02-15T05:45:14;92.50;;;53.63;;
51764;SDS011;37835;53.256;6.456;2023-02-15T05:47:40;102.63;;;57.40;;
51764;SDS011;37835;53.256;6.456;2023-02-15T05:50:07;87.67;;;53.57;;
51764;SDS011;37835;53.256;6.456;2023-02-15T05:52:33;87.70;;;52.73;;
51764;SDS011;37835;53.256;6.456;2023-02-15T05:54:59;87.90;;;52.20;;
51764;SDS011;37835;53.256;6.456;2023-02-15T05:57:25;88.30;;;52.83;;
51764;SDS011;37835;53.256;6.456;2023-02-15T05:59:51;93.43;;;54.77;;
51764;SDS011;37835;53.256;6.456;2023-02-15T06:02:17;93.03;;;54.60;;
51764;SDS011;37835;53.256;6.456;2023-02-15T06:04:43;90.63;;;53.37;;
51764;SDS011;37835;53.256;6.456;2023-02-15T06:07:09;94.70;;;55.03;;
51764;SDS011;37835;53.256;6.456;2023-02-15T06:09:34;85.77;;;52.43;;
51764;SDS011;37835;53.256;6.456;2023-02-15T06:12:00;87.90;;;51.53;;
51764;SDS011;37835;53.256;6.456;2023-02-15T06:14:25;91.83;;;54.17;;
51764;SDS011;37835;53.256;6.456;2023-02-15T06:16:51;106.77;;;60.10;;
51764;SDS011;37835;53.256;6.456;2023-02-15T06:19:16;105.07;;;60.27;;
51764;SDS011;37835;53.256;6.456;2023-02-15T06:21:42;114.10;;;63.23;;
51764;SDS011;37835;53.256;6.456;2023-02-15T06:24:08;121.63;;;65.90;;
51764;SDS011;37835;53.256;6.456;2023-02-15T06:26:34;129.53;;;71.00;;
51764;SDS011;37835;53.256;6.456;2023-02-15T06:28:59;132.90;;;72.50;;
51764;SDS011;37835;53.256;6.456;2023-02-15T06:31:25;139.60;;;78.07;;
51764;SDS011;37835;53.256;6.456;2023-02-15T06:33:50;137.97;;;76.37;;
51764;SDS011;37835;53.256;6.456;2023-02-15T06:36:16;137.30;;;76.67;;
51764;SDS011;37835;53.256;6.456;2023-02-15T06:38:42;142.40;;;80.77;;
51764;SDS011;37835;53.256;6.456;2023-02-15T06:41:07;135.90;;;75.43;;
51764;SDS011;37835;53.256;6.456;2023-02-15T06:43:33;146.03;;;81.47;;
51764;SDS011;37835;53.256;6.456;2023-02-15T06:45:59;148.17;;;76.60;;
51764;SDS011;37835;53.256;6.456;2023-02-15T06:48:25;125.67;;;69.70;;
51764;SDS011;37835;53.256;6.456;2023-02-15T06:50:52;115.20;;;64.23;;
51764;SDS011;37835;53.256;6.456;2023-02-15T06:53:17;104.23;;;60.67;;
51764;SDS011;37835;53.256;6.456;2023-02-15T06:55:43;119.80;;;63.50;;
51764;SDS011;37835;53.256;6.456;2023-02-15T06:58:08;200.73;;;61.67;;
51764;SDS011;37835;53.256;6.456;2023-02-15T07:00:34;104.60;;;61.37;;
51764;SDS011;37835;53.256;6.456;2023-02-15T07:03:00;131.43;;;61.67;;
51764;SDS011;37835;53.256;6.456;2023-02-15T07:05:27;100.27;;;57.90;;
51764;SDS011;37835;53.256;6.456;2023-02-15T07:07:56;110.73;;;60.40;;
51764;SDS011;37835;53.256;6.456;2023-02-15T07:10:25;104.60;;;60.60;;
51764;SDS011;37835;53.256;6.456;2023-02-15T07:12:51;105.97;;;62.07;;
51764;SDS011;37835;53.256;6.456;2023-02-15T07:15:18;110.40;;;61.50;;
51764;SDS011;37835;53.256;6.456;2023-02-15T07:17:45;120.13;;;64.40;;
51764;SDS011;37835;53.256;6.456;2023-02-15T07:20:13;117.90;;;62.97;;
51764;SDS011;37835;53.256;6.456;2023-02-15T07:22:41;113.60;;;64.63;;
51764;SDS011;37835;53.256;6.456;2023-02-15T07:25:08;116.30;;;64.50;;
51764;SDS011;37835;53.256;6.456;2023-02-15T07:27:34;113.80;;;63.47;;
51764;SDS011;37835;53.256;6.456;2023-02-15T07:30:00;114.33;;;62.40;;
51764;SDS011;37835;53.256;6.456;2023-02-15T07:32:29;106.70;;;61.07;;
51764;SDS011;37835;53.256;6.456;2023-02-15T07:34:55;110.90;;;61.73;;
51764;SDS011;37835;53.256;6.456;2023-02-15T07:37:21;111.83;;;64.07;;
51764;SDS011;37835;53.256;6.456;2023-02-15T07:39:47;112.13;;;64.97;;
51764;SDS011;37835;53.256;6.456;2023-02-15T07:42:12;106.47;;;63.00;;
51764;SDS011;37835;53.256;6.456;2023-02-15T07:44:38;106.97;;;62.27;;
51764;SDS011;37835;53.256;6.456;2023-02-15T07:47:04;104.87;;;62.30;;
51764;SDS011;37835;53.256;6.456;2023-02-15T07:49:29;106.70;;;63.00;;
51764;SDS011;37835;53.256;6.456;2023-02-15T07:51:55;111.93;;;64.17;;
51764;SDS011;37835;53.256;6.456;2023-02-15T07:54:20;102.07;;;59.13;;
51764;SDS011;37835;53.256;6.456;2023-02-15T07:56:46;101.27;;;60.93;;
51764;SDS011;37835;53.256;6.456;2023-02-15T07:59:11;106.47;;;60.93;;
51764;SDS011;37835;53.256;6.456;2023-02-15T08:01:38;109.57;;;64.27;;
51764;SDS011;37835;53.256;6.456;2023-02-15T08:04:05;101.83;;;65.30;;
51764;SDS011;37835;53.256;6.456;2023-02-15T08:06:33;112.13;;;68.20;;
51764;SDS011;37835;53.256;6.456;2023-02-15T08:09:00;114.27;;;69.73;;
51764;SDS011;37835;53.256;6.456;2023-02-15T08:11:30;114.10;;;69.87;;
51764;SDS011;37835;53.256;6.456;2023-02-15T08:14:01;114.97;;;69.90;;
51764;SDS011;37835;53.256;6.456;2023-02-15T08:16:45;104.13;;;63.77;;
51764;SDS011;37835;53.256;6.456;2023-02-15T08:19:12;101.10;;;61.50;;
51764;SDS011;37835;53.256;6.456;2023-02-15T08:21:46;100.80;;;57.80;;
51764;SDS011;37835;53.256;6.456;2023-02-15T08:24:22;96.73;;;57.00;;
51764;SDS011;37835;53.256;6.456;2023-02-15T08:26:49;93.33;;;56.63;;
51764;SDS011;37835;53.256;6.456;2023-02-15T08:29:16;92.50;;;55.10;;
51764;SDS011;37835;53.256;6.456;2023-02-15T08:31:47;88.65;;;53.78;;
51764;SDS011;37835;53.256;6.456;2023-02-15T08:34:15;91.07;;;53.90;;
51764;SDS011;37835;53.256;6.456;2023-02-15T08:36:43;92.47;;;53.80;;
51764;SDS011;37835;53.256;6.456;2023-02-15T08:39:10;83.40;;;51.87;;
51764;SDS011;37835;53.256;6.456;2023-02-15T08:41:36;81.87;;;51.50;;
51764;SDS011;37835;53.256;6.456;2023-02-15T08:44:04;90.33;;;52.67;;
51764;SDS011;37835;53.256;6.456;2023-02-15T08:46:32;86.40;;;51.60;;
51764;SDS011;37835;53.256;6.456;2023-02-15T08:48:59;87.95;;;52.22;;
51764;SDS011;37835;53.256;6.456;2023-02-15T08:51:32;81.40;;;50.50;;
51764;SDS011;37835;53.256;6.456;2023-02-15T08:54:01;80.53;;;49.17;;
51764;SDS011;37835;53.256;6.456;2023-02-15T08:56:35;85.33;;;51.40;;
51764;SDS011;37835;53.256;6.456;2023-02-15T08:59:03;81.15;;;49.65;;
51764;SDS011;37835;53.256;6.456;2023-02-15T09:01:30;81.70;;;49.33;;
51764;SDS011;37835;53.256;6.456;2023-02-15T09:03:58;81.30;;;50.97;;
51764;SDS011;37835;53.256;6.456;2023-02-15T09:06:26;81.33;;;49.57;;
51764;SDS011;37835;53.256;6.456;2023-02-15T09:08:52;80.25;;;49.72;;
51764;SDS011;37835;53.256;6.456;2023-02-15T09:13:48;85.65;;;50.50;;
51764;SDS011;37835;53.256;6.456;2023-02-15T09:16:29;88.50;;;51.53;;
51764;SDS011;37835;53.256;6.456;2023-02-15T09:18:57;90.07;;;52.65;;
51764;SDS011;37835;53.256;6.456;2023-02-15T09:21:24;83.85;;;52.20;;
51764;SDS011;37835;53.256;6.456;2023-02-15T09:23:52;92.38;;;52.00;;
51764;SDS011;37835;53.256;6.456;2023-02-15T09:26:21;84.32;;;51.80;;
51764;SDS011;37835;53.256;6.456;2023-02-15T09:28:51;87.43;;;52.65;;
51764;SDS011;37835;53.256;6.456;2023-02-15T09:31:18;83.85;;;52.00;;
51764;SDS011;37835;53.256;6.456;2023-02-15T09:33:46;85.80;;;51.08;;
51764;SDS011;37835;53.256;6.456;2023-02-15T09:36:14;81.97;;;51.53;;
51764;SDS011;37835;53.256;6.456;2023-02-15T09:38:42;82.57;;;51.20;;
51764;SDS011;37835;53.256;6.456;2023-02-15T09:41:13;89.32;;;51.53;;
51764;SDS011;37835;53.256;6.456;2023-02-15T09:43:52;82.75;;;49.80;;
51764;SDS011;37835;53.256;6.456;2023-02-15T09:46:40;83.35;;;50.72;;
51764;SDS011;37835;53.256;6.456;2023-02-15T09:49:16;76.55;;;49.20;;
51764;SDS011;37835;53.256;6.456;2023-02-15T10:05:24;68.93;;;44.80;;
51764;SDS011;37835;53.256;6.456;2023-02-15T10:07:59;68.47;;;44.80;;
51764;SDS011;37835;53.256;6.456;2023-02-15T10:10:55;66.90;;;44.80;;
51764;SDS011;37835;53.256;6.456;2023-02-15T10:13:59;67.90;;;43.33;;
51764;SDS011;37835;53.256;6.456;2023-02-15T10:22:56;62.58;;;40.95;;
51764;SDS011;37835;53.256;6.456;2023-02-15T10:28:11;65.22;;;39.53;;
51764;SDS011;37835;53.256;6.456;2023-02-15T10:30:50;60.28;;;38.35;;
51764;SDS011;37835;53.256;6.456;2023-02-15T10:33:32;65.15;;;39.10;;
51764;SDS011;37835;53.256;6.456;2023-02-15T10:38:42;57.70;;;38.28;;
51764;SDS011;37835;53.256;6.456;2023-02-15T10:46:44;53.75;;;36.65;;
51764;SDS011;37835;53.256;6.456;2023-02-15T10:49:49;57.30;;;38.13;;
51764;SDS011;37835;53.256;6.456;2023-02-15T10:55:13;57.42;;;37.35;;
51764;SDS011;37835;53.256;6.456;2023-02-15T10:57:57;58.90;;;37.40;;
51764;SDS011;37835;53.256;6.456;2023-02-15T11:06:11;53.38;;;37.25;;
51764;SDS011;37835;53.256;6.456;2023-02-15T11:08:40;59.88;;;37.60;;
51764;SDS011;37835;53.256;6.456;2023-02-15T11:11:15;52.53;;;36.05;;
51764;SDS011;37835;53.256;6.456;2023-02-15T11:14:05;62.95;;;38.70;;
51764;SDS011;37835;53.256;6.456;2023-02-15T11:19:35;59.72;;;37.80;;
51764;SDS011;37835;53.256;6.456;2023-02-15T11:22:09;54.13;;;36.50;;
51764;SDS011;37835;53.256;6.456;2023-02-15T11:24:38;58.70;;;36.83;;
51764;SDS011;37835;53.256;6.456;2023-02-15T11:27:16;59.38;;;39.22;;
51764;SDS011;37835;53.256;6.456;2023-02-15T11:32:22;61.35;;;37.40;;
51764;SDS011;37835;53.256;6.456;2023-02-15T11:40:26;63.13;;;36.88;;
51764;SDS011;37835;53.256;6.456;2023-02-15T11:43:04;62.90;;;36.97;;
51764;SDS011;37835;53.256;6.456;2023-02-15T11:45:35;60.50;;;35.75;;
51764;SDS011;37835;53.256;6.456;2023-02-15T11:48:01;59.03;;;35.67;;
51764;SDS011;37835;53.256;6.456;2023-02-15T11:50:35;62.63;;;37.53;;
51764;SDS011;37835;53.256;6.456;2023-02-15T11:53:04;62.88;;;37.22;;
51764;SDS011;37835;53.256;6.456;2023-02-15T11:55:46;62.65;;;36.38;;
51764;SDS011;37835;53.256;6.456;2023-02-15T11:58:25;60.63;;;34.15;;
51764;SDS011;37835;53.256;6.456;2023-02-15T12:00:55;61.70;;;35.05;;
51764;SDS011;37835;53.256;6.456;2023-02-15T12:03:48;56.67;;;33.00;;
51764;SDS011;37835;53.256;6.456;2023-02-15T12:06:18;55.38;;;32.78;;
51764;SDS011;37835;53.256;6.456;2023-02-15T12:11:42;55.05;;;32.10;;
51764;SDS011;37835;53.256;6.456;2023-02-15T12:14:08;51.92;;;31.95;;
51764;SDS011;37835;53.256;6.456;2023-02-15T12:16:44;50.15;;;31.65;;
51764;SDS011;37835;53.256;6.456;2023-02-15T12:19:27;55.95;;;32.88;;
51764;SDS011;37835;53.256;6.456;2023-02-15T12:22:04;54.40;;;30.30;;
51764;SDS011;37835;53.256;6.456;2023-02-15T12:24:37;52.72;;;31.50;;
51764;SDS011;37835;53.256;6.456;2023-02-15T12:27:19;49.47;;;31.08;;
51764;SDS011;37835;53.256;6.456;2023-02-15T12:30:39;52.15;;;30.58;;
51764;SDS011;37835;53.256;6.456;2023-02-15T12:32:56;49.25;;;29.15;;
51764;SDS011;37835;53.256;6.456;2023-02-15T12:35:30;52.65;;;29.00;;
51764;SDS011;37835;53.256;6.456;2023-02-15T12:38:00;50.25;;;30.00;;
51764;SDS011;37835;53.256;6.456;2023-02-15T12:40:56;49.65;;;29.77;;
51764;SDS011;37835;53.256;6.456;2023-02-15T12:46:13;55.95;;;30.50;;
51764;SDS011;37835;53.256;6.456;2023-02-15T12:48:45;47.83;;;29.85;;
51764;SDS011;37835;53.256;6.456;2023-02-15T12:51:12;49.08;;;29.95;;
51764;SDS011;37835;53.256;6.456;2023-02-15T12:53:40;50.53;;;29.88;;
51764;SDS011;37835;53.256;6.456;2023-02-15T12:56:07;53.45;;;31.17;;
51764;SDS011;37835;53.256;6.456;2023-02-15T12:58:38;55.90;;;32.10;;
51764;SDS011;37835;53.256;6.456;2023-02-15T13:03:33;53.38;;;32.42;;
51764;SDS011;37835;53.256;6.456;2023-02-15T13:06:00;52.80;;;31.73;;
51764;SDS011;37835;53.256;6.456;2023-02-15T13:08:30;50.25;;;31.20;;
51764;SDS011;37835;53.256;6.456;2023-02-15T13:11:06;56.20;;;33.40;;
51764;SDS011;37835;53.256;6.456;2023-02-15T13:13:56;53.85;;;31.60;;
51764;SDS011;37835;53.256;6.456;2023-02-15T13:16:30;53.88;;;32.50;;
51764;SDS011;37835;53.256;6.456;2023-02-15T13:19:02;57.33;;;33.40;;
51764;SDS011;37835;53.256;6.456;2023-02-15T13:21:41;48.13;;;31.27;;
51764;SDS011;37835;53.256;6.456;2023-02-15T13:24:23;55.97;;;33.67;;
51764;SDS011;37835;53.256;6.456;2023-02-15T13:26:52;57.28;;;34.13;;
51764;SDS011;37835;53.256;6.456;2023-02-15T13:29:24;57.70;;;33.03;;
51764;SDS011;37835;53.256;6.456;2023-02-15T13:31:50;56.03;;;33.75;;
51764;SDS011;37835;53.256;6.456;2023-02-15T13:34:22;57.47;;;35.45;;
51764;SDS011;37835;53.256;6.456;2023-02-15T13:36:57;62.08;;;34.55;;
51764;SDS011;37835;53.256;6.456;2023-02-15T13:48:15;59.72;;;36.72;;
51764;SDS011;37835;53.256;6.456;2023-02-15T13:50:54;57.65;;;36.78;;
51764;SDS011;37835;53.256;6.456;2023-02-15T14:01:44;58.60;;;36.90;;
51764;SDS011;37835;53.256;6.456;2023-02-15T14:10:00;54.00;;;35.20;;
51764;SDS011;37835;53.256;6.456;2023-02-15T14:24:24;54.40;;;33.95;;
51764;SDS011;37835;53.256;6.456;2023-02-15T14:27:27;53.22;;;33.03;;
51764;SDS011;37835;53.256;6.456;2023-02-15T14:30:13;50.15;;;32.10;;
51764;SDS011;37835;53.256;6.456;2023-02-15T14:32:45;57.55;;;33.38;;
51764;SDS011;37835;53.256;6.456;2023-02-15T14:35:14;52.10;;;32.00;;
51764;SDS011;37835;53.256;6.456;2023-02-15T14:37:43;57.38;;;32.08;;
51764;SDS011;37835;53.256;6.456;2023-02-15T14:48:53;47.55;;;30.45;;
51764;SDS011;37835;53.256;6.456;2023-02-15T14:54:06;48.47;;;30.77;;
51764;SDS011;37835;53.256;6.456;2023-02-15T14:56:33;55.45;;;33.47;;
51764;SDS011;37835;53.256;6.456;2023-02-15T14:58:59;52.30;;;31.98;;
51764;SDS011;37835;53.256;6.456;2023-02-15T15:01:38;50.22;;;30.70;;
51764;SDS011;37835;53.256;6.456;2023-02-15T15:04:11;47.20;;;30.77;;
51764;SDS011;37835;53.256;6.456;2023-02-15T15:06:54;47.97;;;32.08;;
51764;SDS011;37835;53.256;6.456;2023-02-15T15:09:43;45.30;;;29.92;;
51764;SDS011;37835;53.256;6.456;2023-02-15T15:14:46;50.20;;;30.70;;
51764;SDS011;37835;53.256;6.456;2023-02-15T15:17:51;46.15;;;29.65;;
51764;SDS011;37835;53.256;6.456;2023-02-15T15:20:00;43.75;;;28.38;;
51764;SDS011;37835;53.256;6.456;2023-02-15T15:22:36;50.58;;;30.25;;
51764;SDS011;37835;53.256;6.456;2023-02-15T15:25:03;48.30;;;30.73;;
51764;SDS011;37835;53.256;6.456;2023-02-15T15:32:38;45.05;;;28.85;;
51764;SDS011;37835;53.256;6.456;2023-02-15T15:38:28;46.90;;;30.15;;
51764;SDS011;37835;53.256;6.456;2023-02-15T15:41:03;47.30;;;29.52;;
51764;SDS011;37835;53.256;6.456;2023-02-15T15:46:59;49.83;;;28.88;;
51764;SDS011;37835;53.256;6.456;2023-02-15T15:49:43;45.65;;;28.15;;
51764;SDS011;37835;53.256;6.456;2023-02-15T15:52:13;47.35;;;29.63;;
51764;SDS011;37835;53.256;6.456;2023-02-15T15:54:41;44.42;;;28.90;;
51764;SDS011;37835;53.256;6.456;2023-02-15T15:57:28;47.42;;;29.45;;
51764;SDS011;37835;53.256;6.456;2023-02-15T15:59:59;48.83;;;30.95;;
51764;SDS011;37835;53.256;6.456;2023-02-15T16:02:24;49.65;;;31.45;;
51764;SDS011;37835;53.256;6.456;2023-02-15T16:04:51;48.53;;;30.42;;
51764;SDS011;37835;53.256;6.456;2023-02-15T16:09:55;47.90;;;30.90;;
51764;SDS011;37835;53.256;6.456;2023-02-15T16:12:33;51.33;;;31.65;;
51764;SDS011;37835;53.256;6.456;2023-02-15T16:15:42;47.95;;;30.77;;
51764;SDS011;37835;53.256;6.456;2023-02-15T16:17:54;50.63;;;31.00;;
51764;SDS011;37835;53.256;6.456;2023-02-15T16:20:23;47.50;;;31.25;;
51764;SDS011;37835;53.256;6.456;2023-02-15T16:22:56;51.42;;;30.70;;
51764;SDS011;37835;53.256;6.456;2023-02-15T16:28:31;53.65;;;32.28;;
51764;SDS011;37835;53.256;6.456;2023-02-15T16:31:04;55.67;;;31.63;;
51764;SDS011;37835;53.256;6.456;2023-02-15T16:33:37;48.05;;;30.88;;
51764;SDS011;37835;53.256;6.456;2023-02-15T16:36:04;52.92;;;31.52;;
51764;SDS011;37835;53.256;6.456;2023-02-15T16:41:13;48.42;;;30.80;;
51764;SDS011;37835;53.256;6.456;2023-02-15T16:43:42;49.88;;;31.25;;
51764;SDS011;37835;53.256;6.456;2023-02-15T16:46:15;49.20;;;31.37;;
51764;SDS011;37835;53.256;6.456;2023-02-15T16:48:52;50.47;;;32.28;;
51764;SDS011;37835;53.256;6.456;2023-02-15T16:51:22;51.00;;;31.17;;
51764;SDS011;37835;53.256;6.456;2023-02-15T16:53:51;56.15;;;32.83;;
51764;SDS011;37835;53.256;6.456;2023-02-15T16:56:18;55.25;;;32.20;;
51764;SDS011;37835;53.256;6.456;2023-02-15T16:58:49;50.42;;;32.47;;
51764;SDS011;37835;53.256;6.456;2023-02-15T17:01:16;49.60;;;31.85;;
51764;SDS011;37835;53.256;6.456;2023-02-15T17:03:45;58.83;;;33.28;;
51764;SDS011;37835;53.256;6.456;2023-02-15T17:06:19;55.97;;;33.17;;
51764;SDS011;37835;53.256;6.456;2023-02-15T17:09:02;56.33;;;33.63;;
51764;SDS011;37835;53.256;6.456;2023-02-15T17:11:40;50.30;;;31.52;;
51764;SDS011;37835;53.256;6.456;2023-02-15T17:17:22;57.83;;;34.13;;
51764;SDS011;37835;53.256;6.456;2023-02-15T17:19:28;49.95;;;32.72;;
51764;SDS011;37835;53.256;6.456;2023-02-15T17:22:01;55.40;;;33.08;;
51764;SDS011;37835;53.256;6.456;2023-02-15T17:24:38;54.70;;;33.47;;